Time;durP1;ratioP1;P1;durP2;ratioP2;P2;SDS_P1;SDS_P2;PMS_P1;PMS_P2;Temp;Humidity;BMP_temperature;BMP_pressure;BME280_temperature;BME280_humidity;BME280_pressure;Samples;Min_cycle;Max_cycle;Signal;HPM_P1;HPM_P2
2022/03/30 00:02:13;;;;;;;42.50;28.83;;;12.00;99.90;;;;;;5114622;28;20601;-72
2022/03/30 00:04:40;;;;;;;46.47;30.25;;;12.00;99.90;;;;;;5113469;28;20198;-71
2022/03/30 00:07:06;;;;;;;50.47;30.13;;;12.10;99.90;;;;;;5114579;28;20222;-71
2022/03/30 00:09:33;;;;;;;41.63;27.00;;;12.20;99.90;;;;;;5114155;28;20673;-71
2022/03/30 00:11:59;;;;;;;42.60;28.87;;;12.20;99.90;;;;;;5114688;28;20202;-71
2022/03/30 00:14:26;;;;;;;39.45;27.35;;;12.20;99.90;;;;;;5114682;28;20616;-71
2022/03/30 00:16:52;;;;;;;42.85;26.55;;;12.10;99.90;;;;;;5096134;28;20209;-71
2022/03/30 00:19:19;;;;;;;35.93;25.00;;;12.10;99.90;;;;;;5114714;28;20198;-71
2022/03/30 00:21:46;;;;;;;33.50;24.05;;;12.00;99.90;;;;;;5114751;28;20620;-71
2022/03/30 00:24:12;;;;;;;45.33;26.03;;;11.90;99.90;;;;;;5114421;28;20684;-71
2022/03/30 00:26:38;;;;;;;34.17;21.83;;;11.70;99.90;;;;;;5096519;28;20594;-71
2022/03/30 00:29:05;;;;;;;27.38;18.42;;;11.60;99.90;;;;;;5114566;28;20198;-71
2022/03/30 00:31:32;;;;;;;22.38;16.33;;;11.70;99.90;;;;;;5114286;28;20677;-71
2022/03/30 00:33:59;;;;;;;20.95;14.45;;;11.70;99.90;;;;;;5114613;28;20210;-72
2022/03/30 00:36:31;;;;;;;25.92;16.17;;;11.70;99.90;;;;;;5114285;28;20217;-72
2022/03/30 00:39:16;;;;;;;25.92;16.00;;;11.70;99.90;;;;;;5096800;28;20589;-71
2022/03/30 00:41:43;;;;;;;30.48;16.70;;;11.70;99.90;;;;;;5114601;28;20199;-70
2022/03/30 00:44:10;;;;;;;21.30;14.70;;;11.70;99.90;;;;;;5114782;28;20202;-71
2022/03/30 00:46:37;;;;;;;24.20;16.33;;;11.60;99.90;;;;;;5114594;28;20210;-71
2022/03/30 00:49:04;;;;;;;29.73;15.60;;;11.60;99.90;;;;;;5096238;28;20614;-71
2022/03/30 00:51:31;;;;;;;20.20;15.65;;;11.50;99.90;;;;;;5113782;28;20222;-72
2022/03/30 00:53:58;;;;;;;24.90;15.15;;;11.40;99.90;;;;;;5114605;28;20283;-71
2022/03/30 00:56:27;;;;;;;26.73;16.67;;;11.40;99.90;;;;;;5114561;28;20205;-70
2022/03/30 00:58:53;;;;;;;26.65;17.50;;;11.40;99.90;;;;;;5114238;28;20199;-72
2022/03/30 01:01:21;;;;;;;25.98;16.00;;;11.50;99.90;;;;;;5096182;28;20649;-72
2022/03/30 01:03:48;;;;;;;26.40;17.02;;;11.50;99.90;;;;;;5095045;28;20630;-72
2022/03/30 01:06:14;;;;;;;23.63;15.65;;;11.50;99.90;;;;;;5113748;28;20275;-73
2022/03/30 01:08:41;;;;;;;24.63;15.88;;;11.50;99.90;;;;;;5095575;28;20207;-73
2022/03/30 01:11:09;;;;;;;23.52;15.13;;;11.50;99.90;;;;;;5113974;28;20218;-73
2022/03/30 01:13:37;;;;;;;19.20;15.15;;;11.50;99.90;;;;;;5113208;28;20224;-73
2022/03/30 01:16:03;;;;;;;24.60;16.17;;;11.50;99.90;;;;;;5113709;28;20549;-72
2022/03/30 01:18:36;;;;;;;23.10;15.40;;;11.50;99.90;;;;;;5099492;28;20199;-73
2022/03/30 01:21:03;;;;;;;34.83;17.58;;;11.40;99.90;;;;;;5117721;28;20225;-73
2022/03/30 01:23:29;;;;;;;20.23;15.00;;;11.30;99.90;;;;;;5100018;28;20206;-73
2022/03/30 01:25:56;;;;;;;28.85;16.23;;;11.40;99.90;;;;;;5117006;28;20214;-72
2022/03/30 01:28:28;;;;;;;21.63;14.40;;;11.30;99.90;;;;;;5116879;28;20211;-72
2022/03/30 01:33:44;;;;;;;24.20;15.10;;;11.40;99.90;;;;;;5101788;28;20182;-72
2022/03/30 01:36:11;;;;;;;22.20;15.32;;;11.40;99.90;;;;;;5117352;28;20232;-72
2022/03/30 01:38:38;;;;;;;24.65;16.30;;;11.40;99.90;;;;;;5099340;28;20658;-71
2022/03/30 01:41:04;;;;;;;23.60;16.52;;;11.40;99.90;;;;;;5117064;28;20206;-72
2022/03/30 01:43:31;;;;;;;22.25;16.73;;;11.40;99.90;;;;;;5117108;28;20194;-71
2022/03/30 01:45:58;;;;;;;29.08;18.85;;;11.40;99.90;;;;;;5116625;28;20199;-71
2022/03/30 01:48:24;;;;;;;34.10;19.95;;;11.40;99.90;;;;;;5116972;28;20198;-71
2022/03/30 01:50:51;;;;;;;34.22;21.08;;;11.30;99.90;;;;;;5116823;28;20215;-71
2022/03/30 01:53:17;;;;;;;27.88;19.77;;;11.30;99.90;;;;;;5116732;28;20711;-71
2022/03/30 01:55:44;;;;;;;35.70;21.45;;;11.30;99.90;;;;;;5098958;28;20199;-71
2022/03/30 01:58:10;;;;;;;32.78;22.10;;;11.20;99.90;;;;;;5116175;28;20201;-71
2022/03/30 02:00:37;;;;;;;32.70;22.02;;;11.20;99.90;;;;;;5116684;28;20202;-71
2022/03/30 02:03:03;;;;;;;38.10;21.75;;;11.20;99.90;;;;;;5098302;28;20214;-71
2022/03/30 02:05:31;;;;;;;29.40;22.23;;;11.20;99.90;;;;;;5116796;28;20226;-71
2022/03/30 02:07:57;;;;;;;33.88;23.80;;;11.30;99.90;;;;;;5116300;28;20213;-71
2022/03/30 02:10:24;;;;;;;37.47;23.30;;;11.20;99.90;;;;;;5098920;28;20226;-72
2022/03/30 02:12:50;;;;;;;34.42;21.90;;;11.30;99.90;;;;;;5116184;28;20191;-71
2022/03/30 02:15:17;;;;;;;25.75;20.67;;;11.30;99.90;;;;;;5116383;28;20666;-71
2022/03/30 02:17:43;;;;;;;32.83;22.45;;;11.20;99.90;;;;;;5116491;28;20195;-71
2022/03/30 02:20:11;;;;;;;34.55;21.13;;;11.20;99.90;;;;;;5116618;28;20198;-71
2022/03/30 02:22:38;;;;;;;38.20;22.70;;;11.10;99.90;;;;;;5098273;28;20209;-71
2022/03/30 02:25:05;;;;;;;37.30;22.77;;;11.10;99.90;;;;;;5115732;28;20560;-71
2022/03/30 02:27:31;;;;;;;33.92;22.10;;;11.10;99.90;;;;;;5115463;28;20671;-71
2022/03/30 02:29:58;;;;;;;35.25;22.42;;;11.00;99.90;;;;;;5094447;28;20231;-71
2022/03/30 02:32:24;;;;;;;37.17;22.40;;;10.90;99.90;;;;;;5095902;28;20268;-71
2022/03/30 02:34:52;;;;;;;34.40;23.17;;;10.80;99.90;;;;;;5095509;28;20203;-71
2022/03/30 02:37:19;;;;;;;36.30;23.63;;;10.70;99.90;;;;;;5095423;28;20663;-72
2022/03/30 02:39:46;;;;;;;36.13;23.98;;;10.80;99.90;;;;;;5095805;28;20199;-71
2022/03/30 02:42:13;;;;;;;33.90;22.50;;;10.70;99.90;;;;;;5094226;28;20260;-71
2022/03/30 02:44:40;;;;;;;33.10;23.52;;;10.70;99.90;;;;;;5095572;28;20662;-71
2022/03/30 02:47:07;;;;;;;42.42;21.60;;;10.70;99.90;;;;;;5095588;28;20208;-71
2022/03/30 02:49:33;;;;;;;40.33;26.55;;;10.70;99.90;;;;;;5095397;28;20203;-71
2022/03/30 02:52:00;;;;;;;38.05;24.90;;;10.60;99.90;;;;;;5095276;28;20219;-71
2022/03/30 02:54:26;;;;;;;43.28;30.45;;;10.70;99.90;;;;;;5095318;28;20240;-71
2022/03/30 02:56:53;;;;;;;34.92;21.60;;;10.70;99.90;;;;;;5095292;28;20210;-71
2022/03/30 02:59:19;;;;;;;29.70;21.25;;;10.70;99.90;;;;;;5094904;28;20623;-71
2022/03/30 03:01:47;;;;;;;30.27;20.73;;;10.70;99.90;;;;;;5095461;28;20207;-71
2022/03/30 03:04:13;;;;;;;30.35;21.40;;;10.80;99.90;;;;;;5095453;28;20199;-71
2022/03/30 03:06:40;;;;;;;26.23;20.35;;;10.80;99.90;;;;;;5093442;28;20619;-71
2022/03/30 03:09:08;;;;;;;29.48;20.23;;;10.80;99.90;;;;;;5094167;28;20218;-72
2022/03/30 03:11:35;;;;;;;35.03;22.35;;;10.70;99.90;;;;;;5094551;28;20299;-71
2022/03/30 03:14:05;;;;;;;33.10;22.63;;;10.60;99.90;;;;;;5095055;28;20294;-71
2022/03/30 03:16:33;;;;;;;30.33;22.48;;;10.40;99.90;;;;;;5095033;28;20207;-71
2022/03/30 03:18:59;;;;;;;30.90;21.77;;;10.30;99.90;;;;;;5093047;28;20236;-71
2022/03/30 03:21:28;;;;;;;36.25;23.55;;;10.20;99.90;;;;;;5094792;28;20709;-71
2022/03/30 03:23:54;;;;;;;32.35;22.25;;;10.20;99.90;;;;;;5095103;28;20206;-71
2022/03/30 03:26:21;;;;;;;34.67;22.92;;;10.10;99.90;;;;;;5094916;28;20198;-71
2022/03/30 03:28:47;;;;;;;32.53;21.65;;;10.20;99.90;;;;;;5094398;28;20663;-71
2022/03/30 03:31:14;;;;;;;35.08;22.27;;;10.30;99.90;;;;;;5096139;28;20215;-71
2022/03/30 03:33:40;;;;;;;34.78;23.30;;;10.20;99.90;;;;;;5114874;28;20205;-72
2022/03/30 03:36:07;;;;;;;37.17;21.98;;;10.30;99.90;;;;;;5114132;28;20229;-71
2022/03/30 03:38:33;;;;;;;26.77;21.15;;;10.30;99.90;;;;;;5113787;28;20202;-72
2022/03/30 03:41:00;;;;;;;30.70;20.60;;;10.30;99.90;;;;;;5114573;28;20199;-71
2022/03/30 03:43:26;;;;;;;29.77;21.45;;;10.30;99.90;;;;;;5115099;28;20202;-71
2022/03/30 03:45:53;;;;;;;34.10;21.90;;;10.30;99.90;;;;;;5114315;28;20206;-72
2022/03/30 03:48:19;;;;;;;31.20;22.42;;;10.40;99.90;;;;;;5115265;28;20666;-72
2022/03/30 03:50:46;;;;;;;28.88;20.33;;;10.30;99.90;;;;;;5114252;28;20218;-72
2022/03/30 03:53:12;;;;;;;32.92;22.67;;;10.30;99.90;;;;;;5096231;28;20199;-72
2022/03/30 03:55:39;;;;;;;33.63;20.52;;;10.40;99.90;;;;;;5114444;28;20665;-71
2022/03/30 03:58:07;;;;;;;37.38;21.85;;;10.50;99.90;;;;;;5114954;28;20248;-71
2022/03/30 04:00:34;;;;;;;35.17;22.48;;;10.50;99.90;;;;;;5114181;28;20209;-72
2022/03/30 04:03:01;;;;;;;30.80;22.75;;;10.50;99.90;;;;;;5114268;28;20199;-71
2022/03/30 04:05:28;;;;;;;30.65;20.77;;;10.60;99.90;;;;;;5114039;28;20218;-71
2022/03/30 04:07:54;;;;;;;29.45;20.58;;;10.60;99.90;;;;;;5114101;28;20202;-71
2022/03/30 04:10:21;;;;;;;26.55;20.35;;;10.60;99.90;;;;;;5078826;28;20202;-72
2022/03/30 04:12:47;;;;;;;33.20;21.38;;;10.60;99.90;;;;;;5112816;28;20221;-71
2022/03/30 04:15:14;;;;;;;24.20;18.48;;;10.70;99.90;;;;;;5113823;28;20259;-72
2022/03/30 04:17:45;;;;;;;28.23;20.15;;;10.70;99.90;;;;;;5114426;28;20198;-71
2022/03/30 04:20:13;;;;;;;28.10;21.33;;;10.70;99.90;;;;;;5114096;28;20194;-71
2022/03/30 04:22:41;;;;;;;32.25;20.25;;;10.60;99.90;;;;;;5113700;28;20219;-72
2022/03/30 04:25:08;;;;;;;31.48;20.15;;;10.60;99.90;;;;;;5113146;28;20202;-71
2022/03/30 04:27:35;;;;;;;27.50;18.42;;;10.60;99.90;;;;;;5113814;28;20251;-72
2022/03/30 04:30:02;;;;;;;26.98;19.83;;;10.60;99.90;;;;;;5113946;28;20230;-71
2022/03/30 04:32:28;;;;;;;34.72;20.35;;;10.60;99.90;;;;;;5113998;28;20225;-71
2022/03/30 04:34:54;;;;;;;30.48;19.90;;;10.60;99.90;;;;;;5113973;28;20650;-71
2022/03/30 04:37:21;;;;;;;27.08;22.15;;;10.60;99.90;;;;;;5113713;28;20205;-72
2022/03/30 04:39:47;;;;;;;32.90;20.90;;;10.60;99.90;;;;;;5114277;28;20232;-71
2022/03/30 04:42:14;;;;;;;27.23;19.95;;;10.60;99.90;;;;;;5095819;28;20743;-71
2022/03/30 04:44:41;;;;;;;28.08;20.27;;;10.60;99.90;;;;;;5113768;28;20217;-72
2022/03/30 04:47:08;;;;;;;33.50;20.63;;;10.60;99.90;;;;;;5113686;28;20677;-70
2022/03/30 04:49:34;;;;;;;28.77;20.60;;;10.60;99.90;;;;;;5114294;28;20198;-71
2022/03/30 04:52:01;;;;;;;27.10;20.40;;;10.50;99.90;;;;;;5116094;28;20684;-70
2022/03/30 04:54:27;;;;;;;29.90;20.95;;;10.50;99.90;;;;;;5117739;28;20231;-70
2022/03/30 04:56:54;;;;;;;30.15;22.67;;;10.60;99.90;;;;;;5083400;28;20223;-70
2022/03/30 04:59:20;;;;;;;32.33;23.30;;;10.60;99.90;;;;;;5118322;28;20534;-70
2022/03/30 05:01:46;;;;;;;35.35;21.80;;;10.60;99.90;;;;;;5082708;28;20198;-70
2022/03/30 05:04:13;;;;;;;36.95;26.88;;;10.60;99.90;;;;;;5117951;28;20195;-71
2022/03/30 05:06:39;;;;;;;29.17;23.67;;;10.70;99.90;;;;;;5117006;28;20230;-71
2022/03/30 05:09:06;;;;;;;39.05;23.52;;;10.60;99.90;;;;;;5118124;28;20198;-72
2022/03/30 05:11:32;;;;;;;37.45;24.73;;;10.50;99.90;;;;;;5117557;28;20218;-70
2022/03/30 05:13:59;;;;;;;39.80;25.40;;;10.50;99.90;;;;;;5099674;28;20351;-70
2022/03/30 05:16:26;;;;;;;37.20;26.15;;;10.50;99.90;;;;;;5099234;28;20677;-71
2022/03/30 05:18:52;;;;;;;35.45;27.20;;;10.50;99.90;;;;;;5117041;28;20579;-70
2022/03/30 05:21:18;;;;;;;156.48;76.25;;;10.50;99.90;;;;;;5117564;28;20203;-71
2022/03/30 05:23:45;;;;;;;123.45;61.00;;;10.60;99.90;;;;;;5117251;28;20198;-70
2022/03/30 05:26:11;;;;;;;54.78;31.75;;;10.60;99.90;;;;;;5117350;28;20202;-70
2022/03/30 05:28:40;;;;;;;46.97;30.13;;;10.60;99.90;;;;;;5117245;28;20198;-70
2022/03/30 05:31:07;;;;;;;78.82;42.08;;;10.60;99.90;;;;;;5098300;28;20227;-70
2022/03/30 05:33:34;;;;;;;48.25;31.13;;;10.60;99.90;;;;;;5116492;28;20221;-71
2022/03/30 05:36:00;;;;;;;57.38;35.83;;;10.60;99.90;;;;;;5116853;28;20202;-70
2022/03/30 05:38:27;;;;;;;48.53;31.42;;;10.60;99.90;;;;;;5117550;28;20243;-70
2022/03/30 05:40:53;;;;;;;47.03;31.50;;;10.60;99.90;;;;;;5082387;28;20651;-70
2022/03/30 05:43:21;;;;;;;49.45;26.92;;;10.60;99.90;;;;;;5117624;28;20277;-70
2022/03/30 05:45:48;;;;;;;52.55;28.58;;;10.50;99.90;;;;;;5117151;28;20290;-71
2022/03/30 05:48:15;;;;;;;45.72;28.65;;;10.60;99.90;;;;;;5099090;28;20240;-70
2022/03/30 05:50:42;;;;;;;47.22;28.13;;;10.60;99.90;;;;;;5116981;28;20281;-70
2022/03/30 05:53:08;;;;;;;38.92;25.33;;;10.60;99.90;;;;;;5117223;28;20226;-70
2022/03/30 05:55:34;;;;;;;37.40;26.52;;;10.60;99.90;;;;;;5117769;28;20197;-70
2022/03/30 05:58:02;;;;;;;42.75;25.52;;;10.50;99.90;;;;;;5116794;28;20205;-70
2022/03/30 06:00:28;;;;;;;36.85;23.98;;;10.50;99.90;;;;;;5117091;28;20740;-72
2022/03/30 06:02:55;;;;;;;35.75;24.05;;;10.40;99.90;;;;;;5116499;28;21108;-71
2022/03/30 06:05:22;;;;;;;35.13;23.75;;;10.30;99.90;;;;;;5117339;28;20205;-71
2022/03/30 06:07:48;;;;;;;36.38;26.52;;;10.30;99.90;;;;;;5099027;28;20210;-72
2022/03/30 06:10:15;;;;;;;31.75;23.60;;;10.30;99.90;;;;;;5099242;28;20190;-71
2022/03/30 06:12:41;;;;;;;31.83;21.00;;;10.30;99.90;;;;;;5116450;28;20222;-71
2022/03/30 06:15:09;;;;;;;29.98;19.98;;;10.10;99.90;;;;;;5117325;28;20271;-72
2022/03/30 06:17:35;;;;;;;31.30;20.63;;;9.90;99.90;;;;;;5116736;28;20191;-72
2022/03/30 06:20:03;;;;;;;28.00;18.67;;;9.90;99.90;;;;;;5117296;28;20243;-71
2022/03/30 06:22:30;;;;;;;22.88;17.90;;;9.80;99.90;;;;;;5116392;28;20202;-72
2022/03/30 06:25:00;;;;;;;24.52;16.45;;;9.90;99.90;;;;;;5116741;28;20202;-72
2022/03/30 06:27:26;;;;;;;28.52;19.38;;;9.80;99.90;;;;;;5116324;28;20680;-70
2022/03/30 06:29:53;;;;;;;30.38;20.27;;;9.80;99.90;;;;;;5116279;28;20241;-70
2022/03/30 06:32:20;;;;;;;24.40;18.25;;;9.80;99.90;;;;;;5115590;28;20218;-71
2022/03/30 06:34:46;;;;;;;30.05;20.83;;;9.70;99.90;;;;;;5116119;28;20248;-70
2022/03/30 06:37:13;;;;;;;28.30;19.35;;;9.60;99.90;;;;;;5116218;28;20597;-71
2022/03/30 06:39:42;;;;;;;32.70;22.63;;;9.60;99.90;;;;;;5116184;28;20214;-71
2022/03/30 06:42:09;;;;;;;37.00;20.95;;;9.50;99.90;;;;;;5116162;28;20214;-70
2022/03/30 06:44:37;;;;;;;34.30;21.95;;;9.40;99.90;;;;;;5116032;28;20195;-72
2022/03/30 06:47:04;;;;;;;30.48;22.27;;;9.40;99.90;;;;;;5115321;28;20206;-71
2022/03/30 06:49:30;;;;;;;32.78;23.30;;;9.50;99.90;;;;;;5115838;28;20612;-70
2022/03/30 06:51:57;;;;;;;30.55;22.10;;;9.50;99.90;;;;;;5115128;28;20210;-70
2022/03/30 06:54:23;;;;;;;34.95;22.20;;;9.40;99.90;;;;;;5116015;28;20194;-71
2022/03/30 06:56:50;;;;;;;35.03;23.30;;;9.40;99.90;;;;;;5080538;28;20198;-70
2022/03/30 06:59:18;;;;;;;46.88;23.65;;;9.30;99.90;;;;;;5115518;28;20206;-70
2022/03/30 07:01:44;;;;;;;40.35;25.30;;;9.30;99.90;;;;;;5115562;28;20199;-69
2022/03/30 07:04:11;;;;;;;36.45;23.73;;;9.20;99.90;;;;;;5115737;28;20202;-70
2022/03/30 07:10:14;;;;;;;44.55;26.42;;;9.20;99.90;;;;;;5115480;28;20227;-70
2022/03/30 07:12:09;;;;;;;39.40;25.80;;;9.20;99.90;;;;;;5115636;28;20218;-70
2022/03/30 07:14:35;;;;;;;44.03;27.98;;;9.10;99.90;;;;;;5114476;28;20194;-69
2022/03/30 07:17:02;;;;;;;45.38;27.98;;;9.10;99.90;;;;;;5115431;28;20556;-70
2022/03/30 07:19:29;;;;;;;40.47;27.88;;;9.00;99.90;;;;;;5114669;28;20244;-71
2022/03/30 07:21:55;;;;;;;42.38;25.52;;;8.90;99.90;;;;;;5115649;28;20205;-70
2022/03/30 07:24:22;;;;;;;46.67;29.35;;;8.90;99.90;;;;;;5096964;28;20210;-72
2022/03/30 07:26:48;;;;;;;44.33;27.75;;;9.00;99.90;;;;;;5115788;28;20270;-70
2022/03/30 07:29:15;;;;;;;42.17;29.33;;;8.90;99.90;;;;;;5114221;28;20698;-71
2022/03/30 07:31:43;;;;;;;42.42;27.52;;;9.00;99.90;;;;;;5114956;28;20207;-70
2022/03/30 07:34:10;;;;;;;43.38;27.60;;;9.10;99.90;;;;;;5115499;28;20203;-70
2022/03/30 07:36:38;;;;;;;43.78;28.45;;;8.90;99.90;;;;;;5114888;28;20244;-70
2022/03/30 07:39:05;;;;;;;57.58;34.42;;;8.90;99.90;;;;;;5115249;28;20202;-70
2022/03/30 07:41:31;;;;;;;46.03;29.92;;;8.90;99.90;;;;;;5114192;28;20206;-70
2022/03/30 07:43:58;;;;;;;46.65;30.42;;;8.80;99.90;;;;;;5115207;28;20263;-71
2022/03/30 07:46:24;;;;;;;47.15;28.40;;;8.90;99.90;;;;;;5114222;28;20235;-70
2022/03/30 07:48:50;;;;;;;48.28;30.83;;;8.70;99.90;;;;;;5114399;28;20681;-70
2022/03/30 07:51:17;;;;;;;49.33;30.33;;;8.60;99.90;;;;;;5095983;28;20195;-70
2022/03/30 07:53:43;;;;;;;57.50;33.70;;;8.60;99.90;;;;;;5113920;28;20203;-70
2022/03/30 07:56:10;;;;;;;45.95;30.23;;;8.60;99.90;;;;;;5114220;28;20198;-70
2022/03/30 07:58:36;;;;;;;50.95;32.20;;;8.50;99.90;;;;;;5096086;28;20194;-69
2022/03/30 08:01:03;;;;;;;50.85;32.20;;;8.60;99.90;;;;;;5114747;28;20198;-70
2022/03/30 08:03:29;;;;;;;52.38;32.30;;;8.50;99.90;;;;;;5096860;28;20199;-70
2022/03/30 08:05:55;;;;;;;52.45;32.03;;;8.50;99.90;;;;;;5114940;28;20242;-70
2022/03/30 08:08:22;;;;;;;52.55;32.90;;;8.50;99.90;;;;;;5096070;28;20206;-70
2022/03/30 08:10:49;;;;;;;60.83;35.65;;;8.50;99.90;;;;;;5114445;28;20669;-70
2022/03/30 08:13:15;;;;;;;55.25;32.33;;;8.50;99.90;;;;;;5095967;28;20211;-70
2022/03/30 08:15:43;;;;;;;52.13;31.83;;;8.60;99.90;;;;;;5114082;28;20668;-70
2022/03/30 08:18:09;;;;;;;56.63;35.67;;;8.50;99.90;;;;;;5113768;28;20220;-70
2022/03/30 08:23:21;;;;;;;55.97;33.60;;;8.40;99.90;;;;;;5114330;28;20190;-70
2022/03/30 08:25:47;;;;;;;53.33;33.60;;;8.40;99.90;;;;;;5114398;28;20222;-69
2022/03/30 08:28:14;;;;;;;56.70;33.28;;;8.40;99.90;;;;;;5113473;28;20208;-69
2022/03/30 08:30:41;;;;;;;53.42;34.80;;;8.40;99.90;;;;;;5114164;28;20287;-69
2022/03/30 08:33:07;;;;;;;56.10;34.50;;;8.40;99.90;;;;;;5114158;28;20221;-69
2022/03/30 08:35:33;;;;;;;51.25;31.65;;;8.40;99.90;;;;;;5114305;28;20206;-70
2022/03/30 08:38:00;;;;;;;61.53;34.83;;;8.40;99.90;;;;;;5113746;28;20285;-69
2022/03/30 08:40:26;;;;;;;60.85;35.60;;;8.40;99.90;;;;;;5114066;28;20668;-70
2022/03/30 08:42:53;;;;;;;62.30;36.60;;;8.30;99.90;;;;;;5114312;28;20202;-70
2022/03/30 08:45:20;;;;;;;53.92;34.85;;;8.30;99.90;;;;;;5113324;28;20240;-70
2022/03/30 08:47:47;;;;;;;59.55;35.13;;;8.30;99.90;;;;;;5113396;28;20201;-70
2022/03/30 08:50:14;;;;;;;63.15;37.38;;;8.20;99.90;;;;;;5114448;28;20190;-70
2022/03/30 08:52:42;;;;;;;63.15;34.33;;;8.30;99.90;;;;;;5112937;28;20280;-70
2022/03/30 08:55:08;;;;;;;61.60;37.33;;;8.30;99.90;;;;;;5114029;28;20195;-70
2022/03/30 08:57:35;;;;;;;62.35;36.40;;;8.20;99.90;;;;;;5114190;28;20190;-68
2022/03/30 09:00:19;;;;;;;58.25;36.55;;;8.10;99.90;;;;;;5096713;28;20202;-68
2022/03/30 09:02:59;;;;;;;62.08;36.75;;;8.10;99.90;;;;;;5113657;28;20206;-70
2022/03/30 09:05:28;;;;;;;62.55;37.22;;;8.10;99.90;;;;;;5113818;28;20278;-69
2022/03/30 09:08:06;;;;;;;65.90;38.50;;;8.10;99.90;;;;;;5113642;28;20674;-69
2022/03/30 09:10:35;;;;;;;71.95;40.65;;;8.20;99.90;;;;;;5114007;28;20198;-69
2022/03/30 09:13:03;;;;;;;64.25;37.65;;;8.20;99.90;;;;;;5095273;28;20600;-69
2022/03/30 09:15:30;;;;;;;67.22;39.00;;;8.10;99.90;;;;;;5113688;28;20199;-68
2022/03/30 09:18:03;;;;;;;68.97;39.85;;;8.20;99.90;;;;;;5113931;28;20299;-68
2022/03/30 09:20:29;;;;;;;63.60;38.50;;;8.20;99.90;;;;;;5113393;28;20202;-69
2022/03/30 09:23:00;;;;;;;68.00;39.13;;;8.20;99.90;;;;;;5113584;28;20244;-69
2022/03/30 09:25:31;;;;;;;70.95;39.05;;;8.20;99.90;;;;;;5113862;28;20183;-69
2022/03/30 09:27:59;;;;;;;68.00;39.13;;;8.10;99.90;;;;;;5114758;28;20592;-72
2022/03/30 09:30:28;;;;;;;65.15;39.85;;;8.10;99.90;;;;;;5114310;28;20231;-72
2022/03/30 09:32:57;;;;;;;63.60;35.92;;;8.30;99.90;;;;;;5112914;28;20219;-70
2022/03/30 09:35:34;;;;;;;64.95;38.35;;;8.30;99.90;;;;;;5113911;28;20202;-70
2022/03/30 09:38:09;;;;;;;60.47;33.33;;;8.30;99.90;;;;;;5114611;28;20203;-70
2022/03/30 09:40:47;;;;;;;59.47;35.90;;;8.20;99.90;;;;;;5098402;28;20198;-70
2022/03/30 09:43:17;;;;;;;59.47;37.15;;;8.20;99.90;;;;;;5116101;28;20662;-70
2022/03/30 09:45:44;;;;;;;55.63;35.72;;;8.30;99.90;;;;;;5116302;28;20654;-70
2022/03/30 09:48:21;;;;;;;56.80;34.42;;;8.30;99.90;;;;;;5117172;28;20213;-70
2022/03/30 09:50:51;;;;;;;61.33;35.88;;;8.30;99.90;;;;;;5117734;28;20547;-69
2022/03/30 09:53:19;;;;;;;63.50;36.15;;;8.40;99.90;;;;;;5117128;28;20210;-70
2022/03/30 09:56:05;;;;;;;56.40;34.72;;;8.50;99.90;;;;;;5116709;28;20194;-70
2022/03/30 09:58:34;;;;;;;51.92;31.50;;;8.50;99.90;;;;;;5116935;28;20179;-70
2022/03/30 10:01:29;;;;;;;54.75;34.15;;;8.50;99.90;;;;;;5116742;28;20206;-69
2022/03/30 10:04:01;;;;;;;54.78;34.28;;;8.50;99.90;;;;;;5116172;28;20203;-70
2022/03/30 10:06:40;;;;;;;55.67;32.90;;;8.50;99.90;;;;;;5098015;28;20223;-70
2022/03/30 10:09:07;;;;;;;55.42;34.38;;;8.40;99.90;;;;;;5116224;28;20202;-70
2022/03/30 10:11:33;;;;;;;52.92;32.22;;;8.50;99.90;;;;;;5116773;28;20202;-70
2022/03/30 10:14:05;;;;;;;53.65;34.25;;;8.50;99.90;;;;;;5116305;28;20644;-70
2022/03/30 10:16:32;;;;;;;54.97;35.47;;;8.50;99.90;;;;;;5082943;28;20198;-69
2022/03/30 10:18:58;;;;;;;51.92;33.83;;;8.50;99.90;;;;;;5116453;28;20571;-70
2022/03/30 10:21:46;;;;;;;51.95;33.83;;;8.40;99.90;;;;;;5116003;28;20213;-71
2022/03/30 10:24:39;;;;;;;57.30;37.00;;;8.30;99.90;;;;;;5116189;28;20203;-71
2022/03/30 10:27:37;;;;;;;69.00;36.97;;;8.40;99.90;;;;;;5116064;28;20649;-70
2022/03/30 10:30:07;;;;;;;53.22;33.75;;;8.50;99.90;;;;;;5115736;28;20227;-71
2022/03/30 10:32:38;;;;;;;59.83;34.03;;;8.50;99.90;;;;;;5114313;28;20232;-71
2022/03/30 10:35:14;;;;;;;56.83;34.75;;;8.50;99.90;;;;;;5116389;28;20350;-70
2022/03/30 10:37:56;;;;;;;47.55;29.98;;;8.40;99.90;;;;;;5115894;28;20202;-71
2022/03/30 10:40:25;;;;;;;53.45;32.55;;;8.40;99.90;;;;;;5116291;28;20179;-70
2022/03/30 10:42:54;;;;;;;58.05;33.63;;;8.40;99.90;;;;;;5116439;28;20203;-70
2022/03/30 10:45:44;;;;;;;53.40;30.80;;;8.40;99.90;;;;;;5097580;28;20209;-71
2022/03/30 10:48:21;;;;;;;60.67;34.38;;;8.40;99.90;;;;;;5115214;28;20203;-72
2022/03/30 10:51:17;;;;;;;60.55;34.03;;;8.40;99.90;;;;;;5115252;28;20198;-70
2022/03/30 10:53:53;;;;;;;49.50;31.58;;;8.50;99.90;;;;;;5116059;28;20215;-71
2022/03/30 10:56:22;;;;;;;52.88;34.92;;;8.60;99.90;;;;;;5115288;28;20194;-71
2022/03/30 10:58:58;;;;;;;51.22;33.83;;;8.60;99.90;;;;;;5115305;28;20203;-70
2022/03/30 11:01:32;;;;;;;61.63;36.90;;;8.70;99.90;;;;;;5115703;28;20653;-70
2022/03/30 11:04:13;;;;;;;55.40;32.58;;;8.90;99.90;;;;;;5115325;28;20183;-72
2022/03/30 11:06:45;;;;;;;52.45;34.90;;;8.70;99.90;;;;;;5114522;28;20301;-71
2022/03/30 11:09:28;;;;;;;53.38;32.40;;;8.80;99.90;;;;;;5115407;28;20272;-70
2022/03/30 11:12:17;;;;;;;52.78;32.25;;;8.80;99.90;;;;;;5115325;28;20262;-71
2022/03/30 11:15:00;;;;;;;50.15;32.88;;;8.80;99.90;;;;;;5114672;28;20209;-71
2022/03/30 11:17:32;;;;;;;43.17;30.80;;;8.90;99.90;;;;;;5115228;28;20178;-71
2022/03/30 11:19:58;;;;;;;58.13;35.15;;;8.90;99.90;;;;;;5115754;28;20198;-71
2022/03/30 11:22:30;;;;;;;50.45;32.92;;;9.10;99.90;;;;;;5115128;28;20214;-71
2022/03/30 11:25:18;;;;;;;50.97;33.20;;;9.30;99.90;;;;;;5096357;28;20198;-70
2022/03/30 11:27:57;;;;;;;52.28;34.40;;;9.30;99.90;;;;;;5115558;28;20187;-71
2022/03/30 11:30:25;;;;;;;50.95;31.70;;;9.40;99.90;;;;;;5096269;28;20241;-71
2022/03/30 11:32:51;;;;;;;54.45;33.95;;;9.50;99.90;;;;;;5096150;28;20766;-72
2022/03/30 11:35:20;;;;;;;47.47;32.25;;;9.50;99.90;;;;;;5113709;28;20243;-70
2022/03/30 11:38:00;;;;;;;56.65;32.90;;;9.50;99.90;;;;;;5114942;28;20203;-70
2022/03/30 11:40:27;;;;;;;48.80;32.38;;;9.70;99.90;;;;;;5114604;28;20182;-70
2022/03/30 11:42:58;;;;;;;53.13;34.83;;;9.60;99.90;;;;;;5114637;28;20206;-70
2022/03/30 11:45:27;;;;;;;53.03;32.67;;;9.90;99.90;;;;;;5114848;28;20202;-70
2022/03/30 11:47:55;;;;;;;52.97;33.90;;;10.10;99.90;;;;;;5114713;28;20266;-69
2022/03/30 11:50:37;;;;;;;51.00;32.95;;;10.40;99.90;;;;;;5114908;28;20681;-70
2022/03/30 11:53:05;;;;;;;47.10;33.20;;;10.60;99.90;;;;;;5114507;28;20593;-70
2022/03/30 11:55:35;;;;;;;50.90;32.67;;;10.80;99.90;;;;;;5114684;28;20194;-70
2022/03/30 11:58:03;;;;;;;50.00;32.63;;;10.60;99.90;;;;;;5114475;28;20198;-70
2022/03/30 12:00:31;;;;;;;45.72;29.67;;;10.50;99.90;;;;;;5095437;28;20206;-70
2022/03/30 12:02:59;;;;;;;50.88;32.30;;;10.50;99.90;;;;;;5114223;28;20198;-71
2022/03/30 12:05:26;;;;;;;47.40;32.47;;;10.40;99.90;;;;;;5114512;28;20230;-71
2022/03/30 12:07:54;;;;;;;48.72;32.60;;;10.50;99.90;;;;;;5113573;28;20233;-71
2022/03/30 12:10:31;;;;;;;45.47;30.20;;;10.70;99.90;;;;;;5113590;28;20211;-73
2022/03/30 12:12:59;;;;;;;42.42;28.05;;;11.10;99.90;;;;;;5113945;28;20262;-72
2022/03/30 12:15:26;;;;;;;44.33;28.92;;;11.30;99.90;;;;;;5114598;28;20650;-71
2022/03/30 12:17:59;;;;;;;44.05;31.05;;;11.50;99.90;;;;;;5114580;28;20266;-71
2022/03/30 12:20:33;;;;;;;42.65;29.77;;;11.40;99.90;;;;;;5114056;28;20254;-72
2022/03/30 12:23:03;;;;;;;41.97;29.10;;;11.40;99.90;;;;;;5096197;28;20198;-71
2022/03/30 12:25:32;;;;;;;44.22;28.83;;;11.00;99.90;;;;;;5114369;28;20666;-71
2022/03/30 12:27:59;;;;;;;36.47;25.55;;;11.10;99.90;;;;;;5096713;28;20195;-70
2022/03/30 12:30:28;;;;;;;36.30;26.38;;;10.90;99.90;;;;;;5114463;28;20222;-70
2022/03/30 12:32:55;;;;;;;36.95;25.73;;;10.80;99.90;;;;;;5114672;28;20308;-70
2022/03/30 12:35:22;;;;;;;36.47;25.83;;;10.80;99.90;;;;;;5114356;28;20201;-70
2022/03/30 12:37:49;;;;;;;40.17;27.75;;;10.90;99.90;;;;;;5114301;28;20191;-71
2022/03/30 12:40:21;;;;;;;38.33;25.77;;;10.80;99.90;;;;;;5113536;28;20198;-70
2022/03/30 12:42:49;;;;;;;40.55;27.15;;;10.80;99.90;;;;;;5113402;28;20206;-70
2022/03/30 12:45:18;;;;;;;35.30;26.80;;;10.90;99.90;;;;;;5113950;28;20198;-71
2022/03/30 12:47:51;;;;;;;37.47;28.05;;;10.90;99.90;;;;;;5114222;28;20198;-70